createdAt,value
2024-03-27T00:00:23.818Z,5.000000
2024-03-27T00:05:23.835Z,4.000000
2024-03-27T00:10:23.837Z,3.000000
2024-03-27T00:15:17.595Z,3.000000
2024-03-27T00:20:23.954Z,3.000000
2024-03-27T00:25:17.622Z,5.000000
2024-03-27T00:30:17.584Z,3.000000
2024-03-27T00:35:15.686Z,3.000000
2024-03-27T00:40:23.995Z,5.000000
2024-03-27T00:45:17.727Z,7.000000
2024-03-27T00:50:23.936Z,4.000000
2024-03-27T00:55:17.788Z,4.000000
2024-03-27T01:00:23.885Z,3.000000
2024-03-27T01:05:23.997Z,1.000000
2024-03-27T01:10:23.992Z,3.000000
2024-03-27T01:15:23.989Z,3.000000
2024-03-27T01:20:17.614Z,2.000000
2024-03-27T01:25:15.812Z,1.000000
2024-03-27T01:30:15.940Z,5.000000
2024-03-27T01:35:23.946Z,3.000000
2024-03-27T01:40:23.998Z,3.000000
2024-03-27T01:45:17.807Z,2.000000
2024-03-27T01:50:24.004Z,3.000000
2024-03-27T01:55:24.035Z,3.000000
2024-03-27T02:00:17.847Z,1.000000
2024-03-27T02:05:24.116Z,3.000000
2024-03-27T02:10:17.800Z,2.000000
2024-03-27T02:15:24.142Z,5.000000
2024-03-27T02:20:15.901Z,4.000000
2024-03-27T02:25:15.895Z,2.000000
2024-03-27T02:30:24.058Z,2.000000
2024-03-27T02:35:17.845Z,5.000000
2024-03-27T02:40:24.117Z,2.000000
2024-03-27T02:45:17.909Z,2.000000
2024-03-27T02:50:17.912Z,2.000000
2024-03-27T02:55:24.084Z,2.000000
2024-03-27T03:00:18.007Z,2.000000
2024-03-27T03:05:17.975Z,3.000000
2024-03-27T03:10:17.893Z,2.000000
2024-03-27T03:15:16.197Z,2.000000
2024-03-27T03:20:15.962Z,2.000000
2024-03-27T03:25:24.235Z,3.000000
2024-03-27T03:30:17.999Z,2.000000
2024-03-27T03:35:24.194Z,3.000000
2024-03-27T03:40:24.185Z,2.000000
2024-03-27T03:45:18.026Z,2.000000
2024-03-27T03:50:18.039Z,2.000000
2024-03-27T03:55:24.303Z,2.000000
2024-03-27T04:00:25.546Z,3.000000
2024-03-27T04:05:25.563Z,2.000000
2024-03-27T04:10:25.501Z,2.000000
2024-03-27T04:15:19.206Z,2.000000
2024-03-27T04:20:19.433Z,1.000000
2024-03-27T04:25:25.576Z,3.000000
2024-03-27T04:30:25.539Z,2.000000
2024-03-27T04:35:17.394Z,2.000000
2024-03-27T04:40:17.414Z,2.000000
2024-03-27T04:45:19.385Z,1.000000
2024-03-27T04:50:25.577Z,5.000000
2024-03-27T04:55:25.608Z,5.000000
2024-03-27T05:00:25.581Z,3.000000
2024-03-27T05:05:19.424Z,2.000000
2024-03-27T05:10:25.794Z,1.000000
2024-03-27T05:15:25.626Z,3.000000
2024-03-27T05:20:19.333Z,2.000000
2024-03-27T05:25:25.703Z,5.000000
2024-03-27T05:30:23.569Z,2.000000
2024-03-27T05:35:17.467Z,4.000000
2024-03-27T05:40:23.715Z,9.000000
2024-03-27T05:45:23.684Z,9.000000
2024-03-27T05:50:17.603Z,3.000000
2024-03-27T05:55:23.772Z,2.000000
2024-03-27T06:00:23.693Z,3.000000
2024-03-27T06:05:17.456Z,2.000000
2024-03-27T06:10:15.610Z,3.000000
2024-03-27T06:15:15.598Z,3.000000
2024-03-27T06:20:23.989Z,1.000000
2024-03-27T06:25:23.766Z,1.000000
2024-03-27T06:30:23.774Z,2.000000
2024-03-27T06:35:17.655Z,2.000000
2024-03-27T06:40:17.511Z,2.000000
2024-03-27T06:45:22.498Z,3.000000
2024-03-27T06:50:23.803Z,2.000000
2024-03-27T06:55:17.658Z,3.000000
2024-03-27T07:00:17.626Z,2.000000
2024-03-27T07:05:15.641Z,2.000000
2024-03-27T07:10:23.830Z,2.000000
2024-03-27T07:15:23.928Z,1.000000
2024-03-27T07:20:17.644Z,1.000000
2024-03-27T07:25:20.128Z,1.000000
2024-03-27T07:30:23.919Z,1.000000
2024-03-27T07:35:23.886Z,1.000000
2024-03-27T07:40:23.955Z,1.000000
2024-03-27T07:45:23.953Z,2.000000
2024-03-27T07:50:23.909Z,1.000000
2024-03-27T07:55:15.803Z,1.000000
2024-03-27T08:00:17.899Z,1.000000
2024-03-27T08:05:24.290Z,2.000000
2024-03-27T08:10:17.702Z,1.000000
2024-03-27T08:15:24.002Z,1.000000
2024-03-27T08:20:17.797Z,4.000000
2024-03-27T08:25:24.010Z,3.000000
2024-03-27T08:30:24.059Z,2.000000
2024-03-27T08:35:24.284Z,3.000000
2024-03-27T08:40:24.065Z,3.000000
2024-03-27T08:45:23.993Z,3.000000
2024-03-27T08:50:15.898Z,3.000000
2024-03-27T08:55:15.909Z,3.000000
2024-03-27T09:00:17.856Z,2.000000
2024-03-27T09:05:17.918Z,2.000000
2024-03-27T09:10:24.249Z,2.000000
2024-03-27T09:15:24.118Z,2.000000
2024-03-27T09:20:17.826Z,2.000000
2024-03-27T09:25:17.949Z,2.000000
2024-03-27T09:30:17.942Z,1.000000
2024-03-27T09:35:17.814Z,3.000000
2024-03-27T09:40:24.147Z,2.000000
2024-03-27T09:45:16.057Z,3.000000
2024-03-27T09:50:17.980Z,3.000000
2024-03-27T09:55:24.284Z,4.000000
2024-03-27T10:00:17.931Z,4.000000
2024-03-27T10:05:24.242Z,3.000000
2024-03-27T10:10:24.268Z,2.000000
2024-03-27T10:15:24.352Z,1.000000
2024-03-27T10:20:18.055Z,2.000000
2024-03-27T10:25:18.049Z,1.000000
2024-03-27T10:30:24.356Z,2.000000
2024-03-27T10:35:16.121Z,2.000000
2024-03-27T10:40:16.129Z,2.000000
2024-03-27T10:45:18.143Z,3.000000
2024-03-27T10:50:24.498Z,2.000000
2024-03-27T10:55:24.340Z,2.000000
2024-03-27T11:00:18.012Z,2.000000
2024-03-27T11:05:20.132Z,1.000000
2024-03-27T11:10:24.406Z,2.000000
2024-03-27T11:15:24.329Z,1.000000
2024-03-27T11:20:24.354Z,2.000000
2024-03-27T11:25:18.226Z,1.000000
2024-03-27T11:30:16.224Z,2.000000
2024-03-27T11:35:16.221Z,2.000000
2024-03-27T11:40:24.475Z,1.000000
2024-03-27T11:45:24.463Z,1.000000
2024-03-27T11:50:24.437Z,2.000000
2024-03-27T11:55:22.758Z,1.000000
2024-03-27T12:00:24.485Z,2.000000
2024-03-27T12:05:18.263Z,1.000000
2024-03-27T12:10:24.475Z,2.000000
2024-03-27T12:15:18.425Z,2.000000
2024-03-27T12:20:24.531Z,1.000000
2024-03-27T12:25:16.357Z,2.000000
2024-03-27T12:30:18.275Z,1.000000
2024-03-27T12:35:18.504Z,2.000000
2024-03-27T12:40:24.508Z,1.000000
2024-03-27T12:45:24.503Z,2.000000
2024-03-27T12:50:24.474Z,2.000000
2024-03-27T12:55:18.328Z,4.000000
2024-03-27T13:00:18.269Z,2.000000
2024-03-27T13:05:24.742Z,3.000000
2024-03-27T13:10:24.493Z,6.000000
2024-03-27T13:15:16.379Z,4.000000
2024-03-27T13:20:16.367Z,3.000000
2024-03-27T13:25:18.425Z,4.000000
2024-03-27T13:30:24.716Z,4.000000
2024-03-27T13:35:24.681Z,4.000000
2024-03-27T13:40:24.656Z,3.000000
2024-03-27T13:45:18.405Z,3.000000
2024-03-27T13:50:18.424Z,2.000000
2024-03-27T13:55:18.519Z,1.000000
2024-03-27T14:00:24.692Z,3.000000
2024-03-27T14:05:24.626Z,4.000000
2024-03-27T14:10:16.516Z,2.000000
2024-03-27T14:15:16.560Z,2.000000
2024-03-27T14:20:18.484Z,4.000000
2024-03-27T14:25:24.810Z,3.000000
2024-03-27T14:30:24.735Z,2.000000
2024-03-27T14:35:24.774Z,3.000000
2024-03-27T14:40:24.743Z,3.000000
2024-03-27T14:45:18.534Z,2.000000
2024-03-27T14:50:24.799Z,1.000000
2024-03-27T14:55:24.809Z,2.000000
2024-03-27T15:00:24.835Z,3.000000
2024-03-27T15:05:16.700Z,1.000000
2024-03-27T15:10:24.923Z,0.000000
2024-03-27T15:15:25.054Z,0.000000
2024-03-27T15:20:24.719Z,0.000000
2024-03-27T15:25:18.577Z,1.000000
2024-03-27T15:30:24.966Z,1.000000
2024-03-27T15:35:18.639Z,1.000000
2024-03-27T15:40:24.865Z,1.000000
2024-03-27T15:45:24.855Z,1.000000
2024-03-27T15:50:24.915Z,1.000000
2024-03-27T15:55:16.606Z,0.000000
2024-03-27T16:00:16.705Z,1.000000
2024-03-27T16:05:24.856Z,1.000000
2024-03-27T16:10:18.739Z,1.000000
2024-03-27T16:15:24.890Z,1.000000
2024-03-27T16:20:24.907Z,1.000000
2024-03-27T16:25:24.981Z,1.000000
2024-03-27T16:30:24.887Z,1.000000
2024-03-27T16:35:18.775Z,2.000000
2024-03-27T16:40:18.815Z,3.000000
2024-03-27T16:45:24.958Z,3.000000
2024-03-27T16:50:16.808Z,0.000000
2024-03-27T16:55:16.693Z,1.000000
2024-03-27T17:00:18.817Z,1.000000
2024-03-27T17:05:24.972Z,2.000000
2024-03-27T17:10:18.757Z,2.000000
2024-03-27T17:15:24.922Z,1.000000
2024-03-27T17:20:18.708Z,2.000000
2024-03-27T17:26:04.161Z,2.000000
2024-03-27T17:30:25.044Z,1.000000
2024-03-27T17:35:18.913Z,2.000000
2024-03-27T17:40:18.854Z,1.000000
2024-03-27T17:45:16.792Z,2.000000
2024-03-27T17:50:25.144Z,2.000000
2024-03-27T17:55:25.045Z,2.000000
2024-03-27T18:00:25.067Z,1.000000
2024-03-27T18:05:25.141Z,1.000000
2024-03-27T18:10:18.847Z,1.000000
2024-03-27T18:15:18.821Z,1.000000
2024-03-27T18:20:25.255Z,2.000000
2024-03-27T18:25:25.112Z,1.000000
2024-03-27T18:30:25.079Z,0.000000
2024-03-27T18:35:16.872Z,1.000000
2024-03-27T18:40:16.965Z,0.000000
2024-03-27T18:45:25.157Z,0.000000
2024-03-27T18:50:18.919Z,0.000000
2024-03-27T18:55:25.142Z,1.000000
2024-03-27T19:00:18.924Z,2.000000
2024-03-27T19:05:25.170Z,3.000000
2024-03-27T19:10:25.299Z,2.000000
2024-03-27T19:15:18.936Z,2.000000
2024-03-27T19:20:28.327Z,3.000000
2024-03-27T19:25:25.192Z,2.000000
2024-03-27T19:30:16.967Z,0.000000
2024-03-27T19:35:25.256Z,1.000000
2024-03-27T19:40:18.972Z,1.000000
2024-03-27T19:45:19.086Z,1.000000
2024-03-27T19:50:19.032Z,2.000000
2024-03-27T19:55:19.036Z,1.000000
2024-03-27T20:00:25.224Z,0.000000
2024-03-27T20:05:25.298Z,0.000000
2024-03-27T20:10:25.215Z,1.000000
2024-03-27T20:15:25.223Z,2.000000
2024-03-27T20:20:17.115Z,2.000000
2024-03-27T20:25:17.090Z,2.000000
2024-03-27T20:30:25.416Z,2.000000
2024-03-27T20:35:19.087Z,0.000000
2024-03-27T20:40:25.285Z,0.000000
2024-03-27T20:45:19.026Z,0.000000
2024-03-27T20:50:25.449Z,0.000000
2024-03-27T20:55:19.010Z,0.000000
2024-03-27T21:00:25.220Z,0.000000
2024-03-27T21:05:25.659Z,1.000000
2024-03-27T21:10:25.331Z,0.000000
2024-03-27T21:15:17.214Z,0.000000
2024-03-27T21:20:17.102Z,0.000000
2024-03-27T21:25:19.315Z,0.000000
2024-03-27T21:30:25.442Z,1.000000
2024-03-27T21:35:19.256Z,0.000000
2024-03-27T21:40:25.483Z,0.000000
2024-03-27T21:45:19.171Z,0.000000
2024-03-27T21:50:25.412Z,0.000000
2024-03-27T21:55:19.146Z,0.000000
2024-03-27T22:00:19.194Z,0.000000
2024-03-27T22:05:19.272Z,0.000000
2024-03-27T22:10:17.270Z,0.000000
2024-03-27T22:15:25.369Z,0.000000
2024-03-27T22:20:28.805Z,0.000000
2024-03-27T22:25:25.493Z,2.000000
2024-03-27T22:30:19.177Z,0.000000
2024-03-27T22:35:19.318Z,0.000000
2024-03-27T22:40:19.220Z,0.000000
2024-03-27T22:45:19.254Z,0.000000
2024-03-27T22:50:25.433Z,0.000000
2024-03-27T22:55:25.615Z,1.000000
2024-03-27T23:00:17.368Z,0.000000
2024-03-27T23:05:17.251Z,0.000000
2024-03-27T23:10:25.544Z,0.000000
2024-03-27T23:15:25.352Z,1.000000
2024-03-27T23:20:25.409Z,2.000000
2024-03-27T23:25:19.371Z,0.000000
2024-03-27T23:30:19.309Z,1.000000
2024-03-27T23:35:25.540Z,1.000000
2024-03-27T23:40:25.587Z,1.000000
2024-03-27T23:45:19.330Z,1.000000
2024-03-27T23:50:25.623Z,2.000000
2024-03-27T23:55:17.440Z,3.000000
